Time;durP1;ratioP1;P1;durP2;ratioP2;P2;SDS_P1;SDS_P2;PMS_P1;PMS_P2;Temp;Humidity;BMP_temperature;BMP_pressure;BME280_temperature;BME280_humidity;BME280_pressure;Samples;Min_cycle;Max_cycle;Signal;HPM_P1;HPM_P2
2022/12/31 00:00:26;;;;;;;;;;;;;;;13.56;73.26;99890.16;1045675;28;614;-67
2022/12/31 00:01:16;;;;;;;;;;;;;;;13.55;73.86;99889.31;1048664;28;676;-67
2022/12/31 00:02:07;;;;;;;;;;;;;;;13.55;73.74;99886.63;1046196;28;656;-67
2022/12/31 00:02:57;;;;;;;;;;;;;;;13.55;73.20;99893.81;1049413;28;1154;-67
2022/12/31 00:03:48;;;;;;;;;;;;;;;13.55;72.93;99891.13;1047768;28;1012;-67
2022/12/31 00:04:38;;;;;;;;;;;;;;;13.54;73.64;99895.63;1047878;28;742;-67
2022/12/31 00:05:28;;;;;;;;;;;;;;;13.55;73.01;99891.13;1049684;28;684;-67
2022/12/31 00:06:19;;;;;;;;;;;;;;;13.53;73.75;99890.44;1047816;28;673;-67
2022/12/31 00:07:09;;;;;;;;;;;;;;;13.51;73.23;99884.38;1049166;28;635;-67
2022/12/31 00:08:00;;;;;;;;;;;;;;;13.50;73.65;99883.53;1048656;28;654;-67
2022/12/31 00:08:50;;;;;;;;;;;;;;;13.52;73.24;99880.72;1049151;28;1236;-67
2022/12/31 00:09:41;;;;;;;;;;;;;;;13.52;73.51;99886.06;1047826;28;725;-67
2022/12/31 00:10:38;;;;;;;;;;;;;;;13.51;73.72;99879.00;1049534;28;1344;-66
2022/12/31 00:11:29;;;;;;;;;;;;;;;13.50;73.21;99883.53;1048604;28;726;-67
2022/12/31 00:12:19;;;;;;;;;;;;;;;13.50;73.81;99886.19;1049535;28;1063;-67
2022/12/31 00:13:09;;;;;;;;;;;;;;;13.50;73.21;99883.53;1045584;28;630;-67
2022/12/31 00:14:00;;;;;;;;;;;;;;;13.50;74.03;99877.31;1043261;28;771;-66
2022/12/31 00:14:50;;;;;;;;;;;;;;;13.50;73.09;99878.16;1045509;28;645;-67
2022/12/31 00:15:41;;;;;;;;;;;;;;;13.49;73.66;99876.47;1046095;28;719;-67
2022/12/31 00:16:31;;;;;;;;;;;;;;;13.52;73.05;99875.34;1046034;28;570;-67
2022/12/31 00:17:22;;;;;;;;;;;;;;;13.51;73.26;99879.00;1048125;28;1516;-66
2022/12/31 00:18:12;;;;;;;;;;;;;;;13.52;73.35;99880.72;1046189;28;692;-67
2022/12/31 00:19:03;;;;;;;;;;;;;;;13.50;73.25;99878.16;1048056;28;1062;-67
2022/12/31 00:19:53;;;;;;;;;;;;;;;13.50;73.53;99882.66;1049506;28;1182;-66
2022/12/31 00:20:43;;;;;;;;;;;;;;;13.51;73.89;99881.69;1047953;28;662;-66
2022/12/31 00:21:34;;;;;;;;;;;;;;;13.49;73.71;99884.50;1048356;28;665;-66
2022/12/31 00:22:24;;;;;;;;;;;;;;;13.51;73.67;99887.88;1047572;28;1981;-67
2022/12/31 00:23:15;;;;;;;;;;;;;;;13.50;73.19;99883.53;1049095;28;638;-67
2022/12/31 00:24:05;;;;;;;;;;;;;;;13.50;73.16;99883.53;1047947;28;948;-67
2022/12/31 00:24:56;;;;;;;;;;;;;;;13.51;72.96;99892.41;1048506;28;693;-67
2022/12/31 00:25:46;;;;;;;;;;;;;;;13.50;73.14;99888.03;1046671;28;1694;-66
2022/12/31 00:26:37;;;;;;;;;;;;;;;13.50;73.72;99888.03;1047966;28;676;-67
2022/12/31 00:27:28;;;;;;;;;;;;;;;13.49;73.81;99895.22;1047220;28;1547;-67
2022/12/31 00:28:18;;;;;;;;;;;;;;;13.48;73.67;99893.53;1047479;28;681;-67
2022/12/31 00:29:09;;;;;;;;;;;;;;;13.50;73.06;99898.72;1048890;28;816;-67
2022/12/31 00:29:59;;;;;;;;;;;;;;;13.49;73.40;99897.88;1049025;28;685;-67
2022/12/31 00:30:50;;;;;;;;;;;;;;;13.50;73.51;99894.22;1048501;28;622;-67
2022/12/31 00:31:40;;;;;;;;;;;;;;;13.50;73.74;99907.59;1048183;28;1182;-66
2022/12/31 00:32:30;;;;;;;;;;;;;;;13.50;73.59;99902.25;1045506;28;712;-66
2022/12/31 00:33:21;;;;;;;;;;;;;;;13.49;73.75;99907.75;1047257;28;1159;-67
2022/12/31 00:34:11;;;;;;;;;;;;;;;13.47;73.52;99899.84;1045431;28;681;-67
2022/12/31 00:35:02;;;;;;;;;;;;;;;13.49;73.72;99908.59;1048150;28;1210;-67
2022/12/31 00:35:52;;;;;;;;;;;;;;;13.49;73.90;99897.88;1045478;28;657;-66
2022/12/31 00:36:44;;;;;;;;;;;;;;;13.52;73.53;99904.78;1048585;28;875;-67
2022/12/31 00:37:35;;;;;;;;;;;;;;;13.53;73.60;99907.34;1049163;28;661;-67
2022/12/31 00:38:25;;;;;;;;;;;;;;;13.54;73.45;99903.66;1047783;28;701;-67
2022/12/31 00:39:16;;;;;;;;;;;;;;;13.54;74.04;99901.00;1049433;28;1127;-67
2022/12/31 00:40:06;;;;;;;;;;;;;;;13.54;73.55;99911.69;1047724;28;706;-67
2022/12/31 00:40:56;;;;;;;;;;;;;;;13.57;73.37;99909.72;1049390;28;1165;-67
2022/12/31 00:41:47;;;;;;;;;;;;;;;13.55;73.75;99913.41;1047991;28;666;-66
2022/12/31 00:42:37;;;;;;;;;;;;;;;13.57;73.42;99909.72;1049327;28;1890;-67
2022/12/31 00:43:28;;;;;;;;;;;;;;;13.60;73.29;99915.66;1047907;28;744;-67
2022/12/31 00:44:18;;;;;;;;;;;;;;;13.59;73.89;99913.13;1049412;28;1225;-67
2022/12/31 00:45:08;;;;;;;;;;;;;;;13.59;73.54;99910.44;1047933;28;845;-67
2022/12/31 00:45:59;;;;;;;;;;;;;;;13.58;73.75;99914.09;1049417;28;1225;-67
2022/12/31 00:46:49;;;;;;;;;;;;;;;13.58;73.44;99906.06;1045474;28;626;-67
2022/12/31 00:47:40;;;;;;;;;;;;;;;13.58;73.22;99900.72;1049422;28;1067;-67
2022/12/31 00:48:30;;;;;;;;;;;;;;;13.59;73.33;99905.09;1044183;28;634;-66
2022/12/31 00:49:21;;;;;;;;;;;;;;;13.60;73.30;99904.09;1048452;28;642;-67
2022/12/31 00:50:11;;;;;;;;;;;;;;;13.60;73.84;99899.59;1045401;28;637;-66
2022/12/31 00:51:01;;;;;;;;;;;;;;;13.61;73.72;99900.44;1048371;28;685;-67
2022/12/31 00:51:52;;;;;;;;;;;;;;;13.60;73.89;99904.09;1048556;28;1137;-67
2022/12/31 00:52:42;;;;;;;;;;;;;;;13.60;73.45;99909.44;1047792;28;958;-66
2022/12/31 00:53:33;;;;;;;;;;;;;;;13.59;73.79;99911.28;1049417;28;1146;-67
2022/12/31 00:54:23;;;;;;;;;;;;;;;13.59;73.38;99892.53;1047649;28;948;-67
2022/12/31 00:55:14;;;;;;;;;;;;;;;13.59;73.72;99902.41;1049440;28;1135;-67
2022/12/31 00:56:04;;;;;;;;;;;;;;;13.61;73.96;99897.75;1046065;28;674;-67
2022/12/31 00:56:54;;;;;;;;;;;;;;;13.61;73.56;99900.44;1049438;28;1150;-66
2022/12/31 00:57:45;;;;;;;;;;;;;;;13.60;73.66;99898.75;1046249;28;763;-66
2022/12/31 00:58:35;;;;;;;;;;;;;;;13.60;73.91;99898.75;1049330;28;1099;-66
2022/12/31 00:59:26;;;;;;;;;;;;;;;13.59;73.68;99900.56;1047959;28;694;-66
2022/12/31 01:00:16;;;;;;;;;;;;;;;13.60;74.07;99898.75;1051831;28;661;-66
2022/12/31 01:01:07;;;;;;;;;;;;;;;13.60;73.75;99912.13;1048312;28;805;-66
2022/12/31 01:01:57;;;;;;;;;;;;;;;13.60;73.96;99904.09;1049569;28;760;-66
2022/12/31 01:02:47;;;;;;;;;;;;;;;13.58;73.24;99909.59;1044637;28;1894;-65
2022/12/31 01:03:38;;;;;;;;;;;;;;;13.57;73.72;99907.06;1046691;28;1206;-66
2022/12/31 01:04:28;;;;;;;;;;;;;;;13.58;73.76;99914.94;1045313;28;621;-66
2022/12/31 01:05:19;;;;;;;;;;;;;;;13.58;74.07;99911.41;1045902;28;692;-66
2022/12/31 01:06:09;;;;;;;;;;;;;;;13.58;73.60;99911.41;1044393;28;692;-66
2022/12/31 01:06:59;;;;;;;;;;;;;;;13.57;73.78;99909.72;1044506;28;635;-66
2022/12/31 01:07:50;;;;;;;;;;;;;;;13.58;73.55;99908.75;1044741;28;654;-66
2022/12/31 01:08:40;;;;;;;;;;;;;;;13.58;73.78;99906.06;1046248;28;1124;-67
2022/12/31 01:09:31;;;;;;;;;;;;;;;13.55;73.44;99891.97;1045094;28;641;-66
2022/12/31 01:11:31;;;;;;;;;;;;;;;13.55;73.87;99902.69;1045395;28;709;-66
2022/12/31 01:12:21;;;;;;;;;;;;;;;13.55;73.75;99912.53;1048830;28;697;-66
2022/12/31 01:13:11;;;;;;;;;;;;;;;13.55;73.26;99913.41;1049340;28;1122;-67
2022/12/31 01:14:02;;;;;;;;;;;;;;;13.58;73.47;99916.78;1047845;28;754;-67
2022/12/31 01:14:52;;;;;;;;;;;;;;;13.54;73.32;99911.69;1049468;28;1189;-67
2022/12/31 01:15:43;;;;;;;;;;;;;;;13.53;73.79;99899.31;1044911;28;650;-67
2022/12/31 01:16:33;;;;;;;;;;;;;;;13.54;73.92;99906.34;1051365;28;1135;-66
2022/12/31 01:17:23;;;;;;;;;;;;;;;13.55;73.65;99910.72;1047532;28;1603;-67
2022/12/31 01:18:14;;;;;;;;;;;;;;;13.55;73.25;99908.03;1050315;28;1217;-67
2022/12/31 01:19:04;;;;;;;;;;;;;;;13.54;73.45;99906.34;1044668;28;617;-67
2022/12/31 01:19:55;;;;;;;;;;;;;;;13.58;73.40;99900.72;1047136;28;1228;-66
2022/12/31 01:20:45;;;;;;;;;;;;;;;13.55;73.54;99902.69;1044668;28;638;-66
2022/12/31 01:21:36;;;;;;;;;;;;;;;13.55;73.58;99905.38;1048893;28;677;-66
2022/12/31 01:22:26;;;;;;;;;;;;;;;13.55;73.34;99902.69;1049701;28;1969;-66
2022/12/31 01:23:16;;;;;;;;;;;;;;;13.54;73.39;99911.69;1052006;28;669;-67
2022/12/31 01:24:07;;;;;;;;;;;;;;;13.57;73.40;99902.53;1053494;28;1272;-67
2022/12/31 01:24:57;;;;;;;;;;;;;;;13.58;73.96;99916.78;1051345;28;728;-67
2022/12/31 01:25:48;;;;;;;;;;;;;;;13.57;73.88;99902.53;1045327;28;641;-67
2022/12/31 01:26:38;;;;;;;;;;;;;;;13.59;73.45;99907.75;1048412;28;920;-66
2022/12/31 01:27:28;;;;;;;;;;;;;;;13.60;73.89;99909.44;1053112;28;700;-67
2022/12/31 01:28:19;;;;;;;;;;;;;;;13.54;74.07;99911.69;1050171;28;713;-67
2022/12/31 01:29:09;;;;;;;;;;;;;;;13.58;73.79;99906.91;1045251;28;662;-67
2022/12/31 01:30:00;;;;;;;;;;;;;;;13.58;74.11;99906.06;1047799;28;727;-66
2022/12/31 01:30:50;;;;;;;;;;;;;;;13.58;73.43;99904.25;1045279;28;638;-67
2022/12/31 01:31:41;;;;;;;;;;;;;;;13.58;74.17;99906.91;1044128;28;640;-66
2022/12/31 01:32:31;;;;;;;;;;;;;;;13.58;73.13;99911.41;1050638;28;1146;-67
2022/12/31 01:33:22;;;;;;;;;;;;;;;13.56;73.44;99908.88;1044400;28;634;-67
2022/12/31 01:34:12;;;;;;;;;;;;;;;13.55;73.59;99902.69;1046830;28;623;-66
2022/12/31 01:35:02;;;;;;;;;;;;;;;13.56;73.33;99908.88;1044066;28;1110;-67
2022/12/31 01:35:53;;;;;;;;;;;;;;;13.54;73.74;99905.50;1048983;28;602;-66
2022/12/31 01:36:43;;;;;;;;;;;;;;;13.54;73.73;99895.63;1048225;28;1137;-67
2022/12/31 01:37:34;;;;;;;;;;;;;;;13.56;73.57;99892.81;1053096;28;645;-66
2022/12/31 01:38:24;;;;;;;;;;;;;;;13.58;73.66;99900.72;1046543;28;1099;-67
2022/12/31 01:39:15;;;;;;;;;;;;;;;13.58;73.85;99906.91;1052557;28;729;-66
2022/12/31 01:40:05;;;;;;;;;;;;;;;13.59;73.11;99903.25;1052216;28;1174;-67
2022/12/31 01:40:56;;;;;;;;;;;;;;;13.59;74.11;99913.13;1051333;28;748;-67
2022/12/31 01:41:46;;;;;;;;;;;;;;;13.57;73.93;99899.03;1048063;28;716;-67
2022/12/31 01:42:36;;;;;;;;;;;;;;;13.57;73.85;99909.72;1048780;28;1894;-67
2022/12/31 01:43:27;;;;;;;;;;;;;;;13.54;73.89;99914.38;1052858;28;1173;-66
2022/12/31 01:44:17;;;;;;;;;;;;;;;13.54;73.85;99911.69;1050325;28;642;-66
2022/12/31 01:45:08;;;;;;;;;;;;;;;13.55;73.63;99905.38;1049554;28;1157;-66
2022/12/31 01:45:58;;;;;;;;;;;;;;;13.55;73.90;99910.72;1049651;28;752;-66
2022/12/31 01:46:48;;;;;;;;;;;;;;;13.55;73.97;99918.75;1051220;28;1385;-67
2022/12/31 01:47:39;;;;;;;;;;;;;;;13.56;73.99;99914.25;1045541;28;1053;-66
2022/12/31 01:48:29;;;;;;;;;;;;;;;13.57;73.85;99909.72;1048127;28;705;-66
2022/12/31 01:49:20;;;;;;;;;;;;;;;13.55;74.03;99902.69;1044736;28;641;-66
2022/12/31 01:50:10;;;;;;;;;;;;;;;13.54;73.82;99901.00;1048087;28;658;-66
2022/12/31 01:51:01;;;;;;;;;;;;;;;13.53;74.14;99910.00;1044728;28;819;-66
2022/12/31 01:51:51;;;;;;;;;;;;;;;13.55;73.44;99910.72;1053440;28;1185;-66
2022/12/31 01:52:41;;;;;;;;;;;;;;;13.54;73.94;99906.34;1044629;28;611;-66
2022/12/31 01:53:32;;;;;;;;;;;;;;;13.54;73.43;99909.03;1048892;28;696;-66
2022/12/31 01:54:22;;;;;;;;;;;;;;;13.53;73.71;99904.66;1045987;28;681;-66
2022/12/31 01:55:13;;;;;;;;;;;;;;;13.54;73.53;99911.69;1045376;28;1213;-66
2022/12/31 01:56:03;;;;;;;;;;;;;;;13.54;73.48;99906.34;1049407;28;703;-66
2022/12/31 01:56:53;;;;;;;;;;;;;;;13.55;73.45;99909.88;1048503;28;729;-66
2022/12/31 01:57:44;;;;;;;;;;;;;;;13.53;73.78;99920.72;1048930;28;663;-66
2022/12/31 01:58:34;;;;;;;;;;;;;;;13.54;73.55;99914.38;1047153;28;698;-66
2022/12/31 01:59:25;;;;;;;;;;;;;;;13.53;73.94;99910.00;1047039;28;705;-66
2022/12/31 02:00:15;;;;;;;;;;;;;;;13.54;73.52;99901.00;1047494;28;919;-66
2022/12/31 02:01:06;;;;;;;;;;;;;;;13.55;73.42;99902.69;1053000;28;709;-66
2022/12/31 02:01:56;;;;;;;;;;;;;;;13.58;73.66;99908.75;1050046;28;769;-66
2022/12/31 02:02:47;;;;;;;;;;;;;;;13.55;73.68;99908.03;1048141;28;1889;-66
2022/12/31 02:03:37;;;;;;;;;;;;;;;13.55;73.53;99907.19;1048754;28;980;-66
2022/12/31 02:04:28;;;;;;;;;;;;;;;13.56;74.29;99908.88;1052939;28;621;-66
2022/12/31 02:05:18;;;;;;;;;;;;;;;13.58;73.62;99906.06;1046424;28;1118;-66
2022/12/31 02:06:08;;;;;;;;;;;;;;;13.58;73.96;99908.75;1052966;28;629;-66
2022/12/31 02:06:59;;;;;;;;;;;;;;;13.57;73.64;99899.88;1047018;28;1063;-66
2022/12/31 02:07:49;;;;;;;;;;;;;;;13.58;73.63;99901.56;1053057;28;629;-66
2022/12/31 02:08:40;;;;;;;;;;;;;;;13.58;73.93;99911.41;1044654;28;610;-66
2022/12/31 02:09:30;;;;;;;;;;;;;;;13.58;73.75;99900.72;1045258;28;721;-66
2022/12/31 02:10:20;;;;;;;;;;;;;;;13.58;73.50;99904.25;1044694;28;685;-67
2022/12/31 02:11:11;;;;;;;;;;;;;;;13.58;73.35;99896.22;1045117;28;634;-66
2022/12/31 02:12:01;;;;;;;;;;;;;;;13.58;73.17;99885.50;1048825;28;703;-66
2022/12/31 02:12:52;;;;;;;;;;;;;;;13.60;73.63;99888.88;1049114;28;1145;-66
2022/12/31 02:13:42;;;;;;;;;;;;;;;13.58;73.92;99885.50;1049424;28;665;-66
2022/12/31 02:14:33;;;;;;;;;;;;;;;13.58;73.97;99890.00;1054879;28;1256;-66
2022/12/31 02:15:23;;;;;;;;;;;;;;;13.58;73.70;99896.22;1056068;28;1233;-66
2022/12/31 02:16:13;;;;;;;;;;;;;;;13.55;73.58;99891.13;1055357;28;741;-66
2022/12/31 02:17:04;;;;;;;;;;;;;;;13.57;73.18;99894.50;1051893;28;1571;-66
2022/12/31 02:17:54;;;;;;;;;;;;;;;13.58;73.47;99901.56;1052393;28;949;-67
2022/12/31 02:18:45;;;;;;;;;;;;;;;13.57;73.93;99899.03;1055634;28;669;-67
2022/12/31 02:19:35;;;;;;;;;;;;;;;13.56;73.72;99887.47;1057071;28;737;-66
2022/12/31 02:20:25;;;;;;;;;;;;;;;13.58;73.70;99890.00;1051734;28;701;-67
2022/12/31 02:21:16;;;;;;;;;;;;;;;13.56;74.24;99887.47;1052695;28;1016;-67
2022/12/31 02:22:06;;;;;;;;;;;;;;;13.58;73.69;99879.31;1055352;28;641;-67
2022/12/31 02:22:57;;;;;;;;;;;;;;;13.58;73.49;99884.66;1055538;28;852;-67
2022/12/31 02:23:47;;;;;;;;;;;;;;;13.57;73.62;99873.09;1051596;28;671;-67
2022/12/31 02:24:38;;;;;;;;;;;;;;;13.59;73.49;99886.34;1052577;28;660;-67
2022/12/31 02:25:28;;;;;;;;;;;;;;;13.58;73.43;99890.00;1054953;28;1135;-67
2022/12/31 02:26:18;;;;;;;;;;;;;;;13.58;73.60;99884.66;1052916;28;719;-67
2022/12/31 02:27:09;;;;;;;;;;;;;;;13.58;73.93;99885.50;1052410;28;653;-67
2022/12/31 02:27:59;;;;;;;;;;;;;;;13.59;73.87;99889.03;1053494;28;691;-66
2022/12/31 02:28:50;;;;;;;;;;;;;;;13.60;73.58;99882.69;1052347;28;727;-67
2022/12/31 02:29:40;;;;;;;;;;;;;;;13.59;73.61;99886.34;1056115;28;1170;-66
2022/12/31 02:30:30;;;;;;;;;;;;;;;13.58;73.91;99890.84;1055217;28;1154;-66
2022/12/31 02:31:21;;;;;;;;;;;;;;;13.58;73.85;99890.84;1056094;28;712;-67
2022/12/31 02:32:11;;;;;;;;;;;;;;;13.59;73.94;99891.69;1055413;28;988;-66
2022/12/31 02:33:02;;;;;;;;;;;;;;;13.59;73.48;99887.19;1055575;28;673;-67
2022/12/31 02:33:52;;;;;;;;;;;;;;;13.59;73.26;99886.34;1055124;28;1225;-67
2022/12/31 02:34:43;;;;;;;;;;;;;;;13.59;73.40;99878.31;1056115;28;720;-67
2022/12/31 02:35:33;;;;;;;;;;;;;;;13.58;73.89;99890.84;1054227;28;779;-66
2022/12/31 02:36:24;;;;;;;;;;;;;;;13.58;73.58;99890.84;1055827;28;1174;-66
2022/12/31 02:37:14;;;;;;;;;;;;;;;13.59;73.81;99899.72;1055591;28;745;-67
2022/12/31 02:38:04;;;;;;;;;;;;;;;13.60;73.77;99904.09;1055748;28;1051;-66
2022/12/31 02:38:55;;;;;;;;;;;;;;;13.59;73.99;99894.38;1054947;28;1015;-66
2022/12/31 02:39:45;;;;;;;;;;;;;;;13.59;73.95;99900.56;1055373;28;606;-67
2022/12/31 02:40:36;;;;;;;;;;;;;;;13.57;73.58;99899.88;1056404;28;777;-67
2022/12/31 02:42:35;;;;;;;;;;;;;;;13.59;73.53;99907.75;1054638;28;1897;-67
2022/12/31 02:43:26;;;;;;;;;;;;;;;13.59;73.30;99897.91;1055421;28;689;-66
2022/12/31 02:44:16;;;;;;;;;;;;;;;13.59;73.43;99902.41;1056189;28;1174;-66
2022/12/31 02:45:07;;;;;;;;;;;;;;;13.60;74.31;99896.06;1055365;28;745;-67
2022/12/31 02:45:57;;;;;;;;;;;;;;;13.59;73.56;99905.09;1056117;28;653;-67
2022/12/31 02:46:47;;;;;;;;;;;;;;;13.59;73.88;99913.13;1052338;28;678;-67
2022/12/31 02:47:38;;;;;;;;;;;;;;;13.58;73.90;99903.38;1053073;28;1131;-67
2022/12/31 02:48:28;;;;;;;;;;;;;;;13.60;73.25;99912.13;1053819;28;807;-67
2022/12/31 02:49:19;;;;;;;;;;;;;;;13.60;73.61;99910.31;1049180;28;764;-67
2022/12/31 02:50:09;;;;;;;;;;;;;;;13.61;73.47;99911.16;1057568;28;984;-66
2022/12/31 02:51:00;;;;;;;;;;;;;;;13.59;73.98;99913.97;1056050;28;642;-67
2022/12/31 02:51:50;;;;;;;;;;;;;;;13.59;73.85;99908.59;1056507;28;1130;-67
2022/12/31 02:52:40;;;;;;;;;;;;;;;13.58;74.11;99908.75;1055993;28;689;-67
2022/12/31 02:53:31;;;;;;;;;;;;;;;13.58;73.93;99904.25;1054680;28;1106;-67
2022/12/31 02:54:21;;;;;;;;;;;;;;;13.60;73.44;99904.94;1055940;28;689;-67
2022/12/31 02:55:12;;;;;;;;;;;;;;;13.59;73.93;99907.75;1055305;28;1059;-67
2022/12/31 02:56:02;;;;;;;;;;;;;;;13.59;73.58;99910.44;1055924;28;693;-67
2022/12/31 02:56:53;;;;;;;;;;;;;;;13.59;73.51;99902.41;1055457;28;1051;-68
2022/12/31 02:57:43;;;;;;;;;;;;;;;13.58;73.66;99912.28;1056437;28;681;-67
2022/12/31 03:02:13;;;;;;;;;;;;;;;13.57;74.02;99915.94;1052122;28;670;-67
2022/12/31 03:03:03;;;;;;;;;;;;;;;13.61;74.22;99913.81;1055618;28;1044;-67
2022/12/31 03:04:30;;;;;;;;;;;;;;;13.60;73.90;99922.84;1056299;28;649;-67
2022/12/31 03:05:04;;;;;;;;;;;;;;;13.61;73.41;99916.50;1054778;28;697;-67
2022/12/31 03:05:55;;;;;;;;;;;;;;;13.61;73.59;99924.53;1054056;28;1198;-68
2022/12/31 03:06:45;;;;;;;;;;;;;;;13.62;74.08;99928.88;1056526;28;634;-67
2022/12/31 03:07:36;;;;;;;;;;;;;;;13.63;73.72;99927.88;1056419;28;1158;-67
2022/12/31 03:08:26;;;;;;;;;;;;;;;13.62;73.84;99928.88;1057084;28;626;-68
2022/12/31 03:09:17;;;;;;;;;;;;;;;13.62;73.97;99916.31;1052174;28;768;-68
2022/12/31 03:10:07;;;;;;;;;;;;;;;13.62;73.87;99918.16;1055012;28;1671;-67
2022/12/31 03:10:58;;;;;;;;;;;;;;;13.62;73.42;99915.47;1059584;27;940;-67
2022/12/31 03:12:57;;;;;;;;;;;;;;;13.61;74.13;99933.41;1053090;28;764;-68
2022/12/31 03:13:47;;;;;;;;;;;;;;;13.62;73.74;99928.88;1055308;28;1182;-67
2022/12/31 03:14:38;;;;;;;;;;;;;;;13.61;73.56;99932.56;1056318;28;1118;-67
2022/12/31 03:15:28;;;;;;;;;;;;;;;13.61;73.90;99933.41;1056521;28;1153;-67
2022/12/31 03:16:18;;;;;;;;;;;;;;;13.62;73.53;99932.38;1056497;28;766;-67
2022/12/31 03:17:09;;;;;;;;;;;;;;;13.61;73.96;99927.22;1055639;28;756;-67
2022/12/31 03:17:59;;;;;;;;;;;;;;;13.61;73.86;99928.06;1052837;28;708;-67
2022/12/31 03:22:27;;;;;;;;;;;;;;;13.61;73.26;99930.72;1055887;28;1047;-67
2022/12/31 03:23:18;;;;;;;;;;;;;;;13.62;73.52;99936.91;1055858;28;734;-67
2022/12/31 03:25:33;;;;;;;;;;;;;;;13.61;73.83;99932.56;1056458;28;748;-67
2022/12/31 03:26:24;;;;;;;;;;;;;;;13.61;73.97;99929.88;1052511;28;708;-67
2022/12/31 03:27:14;;;;;;;;;;;;;;;13.62;73.49;99934.22;1053360;28;689;-67
2022/12/31 03:28:05;;;;;;;;;;;;;;;13.62;73.93;99931.53;1052932;28;678;-67
2022/12/31 03:28:55;;;;;;;;;;;;;;;13.61;73.26;99932.56;1053073;28;671;-66
2022/12/31 03:29:45;;;;;;;;;;;;;;;13.60;73.45;99936.22;1054916;28;1115;-66
2022/12/31 03:30:36;;;;;;;;;;;;;;;13.59;73.46;99931.84;1054045;28;645;-67
2022/12/31 03:31:26;;;;;;;;;;;;;;;13.58;73.99;99941.72;1052803;28;1143;-66
2022/12/31 03:32:17;;;;;;;;;;;;;;;13.59;73.71;99945.25;1053543;28;757;-66
2022/12/31 03:33:07;;;;;;;;;;;;;;;13.61;73.82;99945.94;1054220;28;1266;-67
2022/12/31 03:33:58;;;;;;;;;;;;;;;13.62;73.84;99936.91;1056508;28;626;-66
2022/12/31 03:34:48;;;;;;;;;;;;;;;13.62;73.82;99936.91;1056381;28;1190;-66
2022/12/31 03:35:38;;;;;;;;;;;;;;;13.61;73.14;99932.56;1056454;28;681;-67
2022/12/31 03:36:29;;;;;;;;;;;;;;;13.61;74.01;99936.09;1056233;28;1118;-66
2022/12/31 03:37:19;;;;;;;;;;;;;;;13.60;73.34;99930.88;1056278;28;713;-66
2022/12/31 03:38:10;;;;;;;;;;;;;;;13.62;73.43;99934.22;1056511;28;677;-66
2022/12/31 03:39:00;;;;;;;;;;;;;;;13.60;73.42;99933.53;1056564;28;646;-67
2022/12/31 03:39:50;;;;;;;;;;;;;;;13.60;73.87;99930.88;1055922;28;1372;-66
2022/12/31 03:40:41;;;;;;;;;;;;;;;13.61;73.94;99932.56;1056468;28;685;-66
2022/12/31 03:41:31;;;;;;;;;;;;;;;13.61;73.52;99927.22;1053273;28;710;-66
2022/12/31 03:42:22;;;;;;;;;;;;;;;13.61;73.82;99930.72;1052323;28;602;-67
2022/12/31 03:43:12;;;;;;;;;;;;;;;13.60;73.46;99926.38;1053951;28;1004;-66
2022/12/31 03:44:03;;;;;;;;;;;;;;;13.60;73.82;99925.50;1055937;28;685;-66
2022/12/31 03:44:53;;;;;;;;;;;;;;;13.60;73.71;99926.38;1055467;28;1047;-66
2022/12/31 03:45:44;;;;;;;;;;;;;;;13.61;73.97;99933.41;1055848;28;606;-66
2022/12/31 03:46:34;;;;;;;;;;;;;;;13.59;74.14;99929.19;1055585;28;1122;-67
2022/12/31 03:47:24;;;;;;;;;;;;;;;13.60;73.44;99928.19;1055775;28;657;-66
2022/12/31 03:48:15;;;;;;;;;;;;;;;13.60;73.83;99922.84;1053930;28;723;-66
2022/12/31 03:49:05;;;;;;;;;;;;;;;13.60;73.18;99925.50;1052110;28;1119;-67
2022/12/31 03:49:56;;;;;;;;;;;;;;;13.59;73.91;99927.34;1053511;28;670;-67
2022/12/31 03:50:46;;;;;;;;;;;;;;;13.59;73.41;99919.31;1053091;28;1150;-67
2022/12/31 03:51:37;;;;;;;;;;;;;;;13.60;73.61;99917.47;1057729;28;640;-67
2022/12/31 03:52:27;;;;;;;;;;;;;;;13.60;73.98;99920.16;1056383;28;1205;-66
2022/12/31 03:53:17;;;;;;;;;;;;;;;13.59;73.83;99908.59;1056277;28;727;-67
2022/12/31 03:54:08;;;;;;;;;;;;;;;13.60;73.42;99907.63;1056162;28;1204;-67
2022/12/31 03:55:00;;;;;;;;;;;;;;;13.61;73.94;99911.16;1056750;28;727;-67
2022/12/31 03:55:51;;;;;;;;;;;;;;;13.61;73.76;99911.16;1054380;28;681;-67
2022/12/31 03:56:41;;;;;;;;;;;;;;;13.58;73.66;99906.91;1056403;28;1138;-67
2022/12/31 03:57:31;;;;;;;;;;;;;;;13.61;73.89;99911.16;1055371;28;753;-67
2022/12/31 03:58:22;;;;;;;;;;;;;;;13.60;74.17;99910.31;1052201;28;723;-67
2022/12/31 03:59:12;;;;;;;;;;;;;;;13.60;73.99;99904.94;1052576;28;729;-67
2022/12/31 04:00:03;;;;;;;;;;;;;;;13.60;73.59;99901.44;1055379;28;991;-67
2022/12/31 04:00:53;;;;;;;;;;;;;;;13.59;73.93;99892.53;1053395;28;687;-67
2022/12/31 04:01:43;;;;;;;;;;;;;;;13.59;74.15;99897.91;1056051;28;1274;-67
2022/12/31 04:02:34;;;;;;;;;;;;;;;13.60;73.48;99896.06;1053366;28;1897;-67
2022/12/31 04:03:24;;;;;;;;;;;;;;;13.59;73.41;99892.53;1056365;28;1099;-67
2022/12/31 04:04:15;;;;;;;;;;;;;;;13.58;73.93;99893.53;1053346;28;637;-67
2022/12/31 04:05:05;;;;;;;;;;;;;;;13.59;73.43;99883.66;1055176;28;1158;-67
2022/12/31 04:05:56;;;;;;;;;;;;;;;13.59;73.85;99891.69;1052849;28;702;-67
2022/12/31 04:06:46;;;;;;;;;;;;;;;13.59;73.55;99886.34;1052258;28;1202;-67
2022/12/31 04:07:36;;;;;;;;;;;;;;;13.61;73.78;99889.72;1053248;28;611;-67
2022/12/31 04:08:27;;;;;;;;;;;;;;;13.59;73.71;99887.19;1052509;28;714;-67
2022/12/31 04:09:17;;;;;;;;;;;;;;;13.58;73.40;99890.00;1051922;28;642;-67
2022/12/31 04:10:08;;;;;;;;;;;;;;;13.59;73.58;99886.34;1056118;28;1123;-66
2022/12/31 04:10:58;;;;;;;;;;;;;;;13.59;74.04;99875.63;1056514;28;692;-66
2022/12/31 04:11:49;;;;;;;;;;;;;;;13.58;73.40;99880.16;1052591;28;1496;-66
2022/12/31 04:12:39;;;;;;;;;;;;;;;13.57;73.65;99883.81;1052835;28;1710;-66
2022/12/31 04:13:29;;;;;;;;;;;;;;;13.58;74.05;99879.31;1052012;28;693;-66
2022/12/31 04:14:20;;;;;;;;;;;;;;;13.58;74.27;99884.66;1052050;28;1032;-67
2022/12/31 04:15:10;;;;;;;;;;;;;;;13.57;73.48;99894.50;1055351;28;738;-66
2022/12/31 04:16:01;;;;;;;;;;;;;;;13.55;73.95;99894.66;1056221;28;1336;-67
2022/12/31 04:16:51;;;;;;;;;;;;;;;13.59;73.89;99899.72;1057599;28;1158;-67
2022/12/31 04:17:42;;;;;;;;;;;;;;;13.55;74.05;99910.72;1055978;28;1162;-67
2022/12/31 04:18:32;;;;;;;;;;;;;;;13.55;73.41;99897.34;1054403;28;700;-67
2022/12/31 04:19:22;;;;;;;;;;;;;;;13.57;73.86;99891.84;1052526;28;1177;-66
2022/12/31 04:20:13;;;;;;;;;;;;;;;13.55;73.33;99894.66;1053424;28;652;-67
2022/12/31 04:21:03;;;;;;;;;;;;;;;13.57;73.41;99899.88;1054247;28;1218;-66
2022/12/31 04:21:54;;;;;;;;;;;;;;;13.53;73.60;99893.94;1053308;28;615;-66
2022/12/31 04:22:44;;;;;;;;;;;;;;;13.54;73.85;99890.28;1055769;28;1914;-67
2022/12/31 04:23:35;;;;;;;;;;;;;;;13.54;73.42;99886.75;1053249;28;614;-67
2022/12/31 04:24:25;;;;;;;;;;;;;;;13.53;74.03;99888.59;1056438;28;727;-67
2022/12/31 04:25:15;;;;;;;;;;;;;;;13.53;74.12;99887.75;1053359;28;684;-67
2022/12/31 04:26:06;;;;;;;;;;;;;;;13.54;73.67;99889.44;1054356;28;1205;-67
2022/12/31 04:26:56;;;;;;;;;;;;;;;13.54;74.13;99895.63;1055993;28;643;-67
2022/12/31 04:27:47;;;;;;;;;;;;;;;13.55;73.65;99901.84;1060122;27;1224;-67
2022/12/31 04:28:37;;;;;;;;;;;;;;;13.55;73.43;99896.47;1060647;27;676;-67
2022/12/31 04:29:28;;;;;;;;;;;;;;;13.58;73.51;99892.69;1055980;28;1015;-66
2022/12/31 04:30:18;;;;;;;;;;;;;;;13.58;73.62;99874.78;1055893;28;610;-66
2022/12/31 04:31:10;;;;;;;;;;;;;;;13.59;73.82;99884.50;1055153;28;685;-67
2022/12/31 04:32:00;;;;;;;;;;;;;;;13.58;73.54;99884.66;1055915;28;655;-66
2022/12/31 04:32:51;;;;;;;;;;;;;;;13.59;74.15;99897.06;1051799;28;693;-67
2022/12/31 04:33:41;;;;;;;;;;;;;;;13.58;73.99;99890.84;1052205;28;638;-67
2022/12/31 04:34:31;;;;;;;;;;;;;;;13.58;73.76;99901.56;1054416;28;1183;-66
2022/12/31 04:35:22;;;;;;;;;;;;;;;13.59;73.96;99897.06;1055627;28;1166;-67
2022/12/31 04:36:12;;;;;;;;;;;;;;;13.59;73.74;99897.06;1052771;28;633;-67
2022/12/31 04:37:03;;;;;;;;;;;;;;;13.59;73.78;99889.03;1051942;28;681;-67
2022/12/31 04:37:53;;;;;;;;;;;;;;;13.60;74.17;99893.41;1051753;28;642;-67
2022/12/31 04:38:43;;;;;;;;;;;;;;;13.59;73.59;99891.69;1051943;28;658;-67
2022/12/31 04:39:34;;;;;;;;;;;;;;;13.57;74.06;99907.91;1052572;28;1576;-66
2022/12/31 04:40:24;;;;;;;;;;;;;;;13.57;74.23;99905.22;1054502;28;976;-66